sensor_id;sensor_type;location;lat;lon;timestamp;P1;durP1;ratioP1;P2;durP2;ratioP2
72559;SDS011;62987;52.382;9.752;2022-09-13T00:01:03;4.57;;;2.20;;
72559;SDS011;62987;52.382;9.752;2022-09-13T00:03:32;5.80;;;2.25;;
72559;SDS011;62987;52.382;9.752;2022-09-13T00:06:05;5.55;;;2.40;;
72559;SDS011;62987;52.382;9.752;2022-09-13T00:08:34;5.22;;;2.78;;
72559;SDS011;62987;52.382;9.752;2022-09-13T00:11:02;6.45;;;2.95;;
72559;SDS011;62987;52.382;9.752;2022-09-13T00:13:32;8.07;;;3.63;;
72559;SDS011;62987;52.382;9.752;2022-09-13T00:16:00;4.20;;;2.03;;
72559;SDS011;62987;52.382;9.752;2022-09-13T00:18:30;4.57;;;2.17;;
72559;SDS011;62987;52.382;9.752;2022-09-13T00:21:05;4.72;;;2.10;;
72559;SDS011;62987;52.382;9.752;2022-09-13T00:23:34;6.00;;;2.28;;
72559;SDS011;62987;52.382;9.752;2022-09-13T00:26:05;4.88;;;2.08;;
72559;SDS011;62987;52.382;9.752;2022-09-13T00:28:36;4.82;;;2.25;;
72559;SDS011;62987;52.382;9.752;2022-09-13T00:31:05;6.35;;;2.95;;
72559;SDS011;62987;52.382;9.752;2022-09-13T00:33:34;5.40;;;2.28;;
72559;SDS011;62987;52.382;9.752;2022-09-13T00:36:03;4.85;;;2.38;;
72559;SDS011;62987;52.382;9.752;2022-09-13T00:38:33;5.22;;;2.63;;
72559;SDS011;62987;52.382;9.752;2022-09-13T00:41:02;5.60;;;2.35;;
72559;SDS011;62987;52.382;9.752;2022-09-13T00:43:40;9.30;;;2.72;;
72559;SDS011;62987;52.382;9.752;2022-09-13T00:46:15;6.13;;;2.38;;
72559;SDS011;62987;52.382;9.752;2022-09-13T00:48:48;4.75;;;2.03;;
72559;SDS011;62987;52.382;9.752;2022-09-13T00:51:19;7.28;;;2.78;;
72559;SDS011;62987;52.382;9.752;2022-09-13T00:53:48;4.75;;;2.45;;
72559;SDS011;62987;52.382;9.752;2022-09-13T00:56:20;9.75;;;2.28;;
72559;SDS011;62987;52.382;9.752;2022-09-13T00:58:55;5.05;;;2.40;;
72559;SDS011;62987;52.382;9.752;2022-09-13T01:01:28;5.68;;;2.88;;
72559;SDS011;62987;52.382;9.752;2022-09-13T01:03:59;6.00;;;2.40;;
72559;SDS011;62987;52.382;9.752;2022-09-13T01:06:29;4.82;;;2.45;;
72559;SDS011;62987;52.382;9.752;2022-09-13T01:09:00;5.07;;;2.60;;
72559;SDS011;62987;52.382;9.752;2022-09-13T01:11:31;7.28;;;3.28;;
72559;SDS011;62987;52.382;9.752;2022-09-13T01:14:07;5.57;;;2.42;;
72559;SDS011;62987;52.382;9.752;2022-09-13T01:16:35;4.70;;;2.30;;
72559;SDS011;62987;52.382;9.752;2022-09-13T01:19:03;6.03;;;2.55;;
72559;SDS011;62987;52.382;9.752;2022-09-13T01:27:53;6.22;;;2.85;;
72559;SDS011;62987;52.382;9.752;2022-09-13T01:30:34;5.70;;;2.60;;
72559;SDS011;62987;52.382;9.752;2022-09-13T01:33:21;4.80;;;2.50;;
72559;SDS011;62987;52.382;9.752;2022-09-13T01:36:02;6.20;;;2.53;;
72559;SDS011;62987;52.382;9.752;2022-09-13T01:38:48;5.00;;;2.42;;
72559;SDS011;62987;52.382;9.752;2022-09-13T01:41:28;6.50;;;2.67;;
72559;SDS011;62987;52.382;9.752;2022-09-13T01:44:11;5.38;;;2.45;;
72559;SDS011;62987;52.382;9.752;2022-09-13T01:46:49;6.90;;;2.90;;
72559;SDS011;62987;52.382;9.752;2022-09-13T01:49:24;6.30;;;2.97;;
72559;SDS011;62987;52.382;9.752;2022-09-13T01:52:04;4.88;;;2.38;;
72559;SDS011;62987;52.382;9.752;2022-09-13T01:54:40;6.38;;;2.65;;
72559;SDS011;62987;52.382;9.752;2022-09-13T01:57:15;6.95;;;2.72;;
72559;SDS011;62987;52.382;9.752;2022-09-13T01:59:47;6.47;;;2.70;;
72559;SDS011;62987;52.382;9.752;2022-09-13T02:02:22;7.05;;;2.38;;
72559;SDS011;62987;52.382;9.752;2022-09-13T02:04:58;6.30;;;2.75;;
72559;SDS011;62987;52.382;9.752;2022-09-13T02:07:32;5.30;;;2.58;;
72559;SDS011;62987;52.382;9.752;2022-09-13T02:10:05;7.07;;;2.67;;
72559;SDS011;62987;52.382;9.752;2022-09-13T02:12:36;8.35;;;2.83;;
72559;SDS011;62987;52.382;9.752;2022-09-13T02:15:08;6.72;;;2.97;;
72559;SDS011;62987;52.382;9.752;2022-09-13T02:17:42;5.88;;;3.00;;
72559;SDS011;62987;52.382;9.752;2022-09-13T02:20:15;5.20;;;2.33;;
72559;SDS011;62987;52.382;9.752;2022-09-13T02:22:48;5.15;;;2.40;;
72559;SDS011;62987;52.382;9.752;2022-09-13T02:25:21;6.18;;;2.92;;
72559;SDS011;62987;52.382;9.752;2022-09-13T02:27:53;5.75;;;2.60;;
72559;SDS011;62987;52.382;9.752;2022-09-13T02:30:25;7.25;;;3.13;;
72559;SDS011;62987;52.382;9.752;2022-09-13T02:32:57;7.18;;;2.75;;
72559;SDS011;62987;52.382;9.752;2022-09-13T02:35:29;7.10;;;3.10;;
72559;SDS011;62987;52.382;9.752;2022-09-13T02:38:03;6.18;;;2.90;;
72559;SDS011;62987;52.382;9.752;2022-09-13T02:40:36;8.00;;;3.00;;
72559;SDS011;62987;52.382;9.752;2022-09-13T02:43:07;5.68;;;2.90;;
72559;SDS011;62987;52.382;9.752;2022-09-13T02:45:43;8.38;;;3.45;;
72559;SDS011;62987;52.382;9.752;2022-09-13T02:48:18;8.25;;;4.40;;
72559;SDS011;62987;52.382;9.752;2022-09-13T02:50:55;8.60;;;3.80;;
72559;SDS011;62987;52.382;9.752;2022-09-13T02:53:33;6.60;;;3.25;;
72559;SDS011;62987;52.382;9.752;2022-09-13T02:56:09;6.88;;;3.67;;
72559;SDS011;62987;52.382;9.752;2022-09-13T02:58:48;8.35;;;4.35;;
72559;SDS011;62987;52.382;9.752;2022-09-13T03:01:21;7.40;;;3.92;;
72559;SDS011;62987;52.382;9.752;2022-09-13T03:03:51;12.40;;;4.53;;
72559;SDS011;62987;52.382;9.752;2022-09-13T03:06:21;8.05;;;3.80;;
72559;SDS011;62987;52.382;9.752;2022-09-13T03:08:50;10.48;;;4.35;;
72559;SDS011;62987;52.382;9.752;2022-09-13T03:11:20;10.02;;;4.05;;
72559;SDS011;62987;52.382;9.752;2022-09-13T03:14:13;9.02;;;4.00;;
72559;SDS011;62987;52.382;9.752;2022-09-13T03:16:53;8.55;;;4.30;;
72559;SDS011;62987;52.382;9.752;2022-09-13T03:19:38;7.90;;;4.07;;
72559;SDS011;62987;52.382;9.752;2022-09-13T03:22:19;7.95;;;4.28;;
72559;SDS011;62987;52.382;9.752;2022-09-13T03:25:08;11.05;;;4.70;;
72559;SDS011;62987;52.382;9.752;2022-09-13T03:27:48;9.68;;;4.63;;
72559;SDS011;62987;52.382;9.752;2022-09-13T03:30:22;11.00;;;5.22;;
72559;SDS011;62987;52.382;9.752;2022-09-13T03:32:51;8.02;;;4.38;;
72559;SDS011;62987;52.382;9.752;2022-09-13T03:35:29;10.95;;;4.68;;
72559;SDS011;62987;52.382;9.752;2022-09-13T03:38:07;9.63;;;5.20;;
72559;SDS011;62987;52.382;9.752;2022-09-13T03:40:39;10.70;;;4.90;;
72559;SDS011;62987;52.382;9.752;2022-09-13T03:43:13;10.35;;;5.20;;
72559;SDS011;62987;52.382;9.752;2022-09-13T03:45:45;8.43;;;4.65;;
72559;SDS011;62987;52.382;9.752;2022-09-13T03:48:16;11.68;;;4.97;;
72559;SDS011;62987;52.382;9.752;2022-09-13T03:50:47;9.15;;;4.82;;
72559;SDS011;62987;52.382;9.752;2022-09-13T03:53:17;10.05;;;4.78;;
72559;SDS011;62987;52.382;9.752;2022-09-13T03:55:49;7.65;;;4.35;;
72559;SDS011;62987;52.382;9.752;2022-09-13T03:58:18;9.55;;;4.88;;
72559;SDS011;62987;52.382;9.752;2022-09-13T04:00:47;9.20;;;4.47;;
72559;SDS011;62987;52.382;9.752;2022-09-13T04:03:15;9.80;;;4.88;;
72559;SDS011;62987;52.382;9.752;2022-09-13T04:05:44;11.75;;;4.75;;
72559;SDS011;62987;52.382;9.752;2022-09-13T04:08:13;8.38;;;4.57;;
72559;SDS011;62987;52.382;9.752;2022-09-13T04:10:41;8.07;;;4.18;;
72559;SDS011;62987;52.382;9.752;2022-09-13T04:13:09;9.70;;;4.40;;
72559;SDS011;62987;52.382;9.752;2022-09-13T04:15:40;15.27;;;5.55;;
72559;SDS011;62987;52.382;9.752;2022-09-13T04:18:08;7.63;;;4.18;;
72559;SDS011;62987;52.382;9.752;2022-09-13T04:20:37;9.98;;;4.95;;
72559;SDS011;62987;52.382;9.752;2022-09-13T04:23:05;11.00;;;5.28;;
72559;SDS011;62987;52.382;9.752;2022-09-13T04:25:36;10.05;;;5.47;;
72559;SDS011;62987;52.382;9.752;2022-09-13T04:28:05;9.27;;;4.20;;
72559;SDS011;62987;52.382;9.752;2022-09-13T04:30:33;7.97;;;3.92;;
72559;SDS011;62987;52.382;9.752;2022-09-13T04:33:07;9.73;;;5.00;;
72559;SDS011;62987;52.382;9.752;2022-09-13T04:35:35;8.30;;;4.63;;
72559;SDS011;62987;52.382;9.752;2022-09-13T04:38:04;8.32;;;4.28;;
72559;SDS011;62987;52.382;9.752;2022-09-13T04:40:33;7.80;;;4.28;;
72559;SDS011;62987;52.382;9.752;2022-09-13T04:43:02;9.15;;;4.13;;
72559;SDS011;62987;52.382;9.752;2022-09-13T04:45:31;8.07;;;3.97;;
72559;SDS011;62987;52.382;9.752;2022-09-13T04:47:59;9.00;;;4.38;;
72559;SDS011;62987;52.382;9.752;2022-09-13T04:50:27;9.20;;;4.20;;
72559;SDS011;62987;52.382;9.752;2022-09-13T04:52:56;8.30;;;4.32;;
72559;SDS011;62987;52.382;9.752;2022-09-13T04:55:25;10.82;;;5.13;;
72559;SDS011;62987;52.382;9.752;2022-09-13T04:57:54;8.77;;;4.38;;
72559;SDS011;62987;52.382;9.752;2022-09-13T05:00:22;10.18;;;4.82;;
72559;SDS011;62987;52.382;9.752;2022-09-13T05:02:55;8.35;;;4.88;;
72559;SDS011;62987;52.382;9.752;2022-09-13T05:05:23;9.63;;;4.55;;
72559;SDS011;62987;52.382;9.752;2022-09-13T05:07:54;9.00;;;4.22;;
72559;SDS011;62987;52.382;9.752;2022-09-13T05:10:22;10.68;;;4.68;;
72559;SDS011;62987;52.382;9.752;2022-09-13T05:12:50;12.00;;;5.32;;
72559;SDS011;62987;52.382;9.752;2022-09-13T05:15:20;7.22;;;3.92;;
72559;SDS011;62987;52.382;9.752;2022-09-13T05:17:48;7.38;;;3.90;;
72559;SDS011;62987;52.382;9.752;2022-09-13T05:20:16;8.70;;;4.78;;
72559;SDS011;62987;52.382;9.752;2022-09-13T05:22:44;7.78;;;4.03;;
72559;SDS011;62987;52.382;9.752;2022-09-13T05:25:14;8.30;;;3.88;;
72559;SDS011;62987;52.382;9.752;2022-09-13T05:27:43;11.40;;;4.55;;
72559;SDS011;62987;52.382;9.752;2022-09-13T05:30:12;10.13;;;4.32;;
72559;SDS011;62987;52.382;9.752;2022-09-13T05:32:41;8.23;;;4.05;;
72559;SDS011;62987;52.382;9.752;2022-09-13T05:35:09;10.90;;;5.05;;
72559;SDS011;62987;52.382;9.752;2022-09-13T05:37:39;9.05;;;4.75;;
72559;SDS011;62987;52.382;9.752;2022-09-13T05:40:07;9.05;;;4.93;;
72559;SDS011;62987;52.382;9.752;2022-09-13T05:42:37;8.05;;;4.22;;
72559;SDS011;62987;52.382;9.752;2022-09-13T05:45:06;9.27;;;4.07;;
72559;SDS011;62987;52.382;9.752;2022-09-13T05:47:35;9.65;;;4.95;;
72559;SDS011;62987;52.382;9.752;2022-09-13T05:50:05;10.45;;;4.45;;
72559;SDS011;62987;52.382;9.752;2022-09-13T05:52:39;9.43;;;4.70;;
72559;SDS011;62987;52.382;9.752;2022-09-13T05:55:07;10.23;;;5.03;;
72559;SDS011;62987;52.382;9.752;2022-09-13T05:57:36;8.85;;;4.53;;
72559;SDS011;62987;52.382;9.752;2022-09-13T06:00:04;7.30;;;4.40;;
72559;SDS011;62987;52.382;9.752;2022-09-13T06:02:37;9.45;;;4.88;;
72559;SDS011;62987;52.382;9.752;2022-09-13T06:05:08;9.77;;;5.28;;
72559;SDS011;62987;52.382;9.752;2022-09-13T06:07:38;9.73;;;4.68;;
72559;SDS011;62987;52.382;9.752;2022-09-13T06:10:08;9.73;;;4.32;;
72559;SDS011;62987;52.382;9.752;2022-09-13T06:12:36;8.55;;;4.47;;
72559;SDS011;62987;52.382;9.752;2022-09-13T06:15:05;8.07;;;4.13;;
72559;SDS011;62987;52.382;9.752;2022-09-13T06:17:34;9.15;;;4.30;;
72559;SDS011;62987;52.382;9.752;2022-09-13T06:20:02;8.35;;;5.03;;
72559;SDS011;62987;52.382;9.752;2022-09-13T06:22:33;10.38;;;4.05;;
72559;SDS011;62987;52.382;9.752;2022-09-13T06:25:01;8.77;;;4.18;;
72559;SDS011;62987;52.382;9.752;2022-09-13T06:27:30;8.98;;;4.50;;
72559;SDS011;62987;52.382;9.752;2022-09-13T06:29:58;10.20;;;4.60;;
72559;SDS011;62987;52.382;9.752;2022-09-13T06:32:26;7.55;;;3.92;;
72559;SDS011;62987;52.382;9.752;2022-09-13T06:34:54;10.77;;;4.15;;
72559;SDS011;62987;52.382;9.752;2022-09-13T06:37:22;9.38;;;4.35;;
72559;SDS011;62987;52.382;9.752;2022-09-13T06:39:52;8.35;;;4.90;;
72559;SDS011;62987;52.382;9.752;2022-09-13T06:42:20;8.40;;;4.03;;
72559;SDS011;62987;52.382;9.752;2022-09-13T06:44:50;6.75;;;4.05;;
72559;SDS011;62987;52.382;9.752;2022-09-13T06:47:18;8.70;;;4.35;;
72559;SDS011;62987;52.382;9.752;2022-09-13T06:49:46;7.65;;;3.92;;
72559;SDS011;62987;52.382;9.752;2022-09-13T06:52:14;29.38;;;13.80;;
72559;SDS011;62987;52.382;9.752;2022-09-13T06:54:42;11.65;;;6.05;;
72559;SDS011;62987;52.382;9.752;2022-09-13T06:57:11;11.18;;;4.32;;
72559;SDS011;62987;52.382;9.752;2022-09-13T06:59:39;7.95;;;4.75;;
72559;SDS011;62987;52.382;9.752;2022-09-13T07:02:08;8.10;;;4.50;;
72559;SDS011;62987;52.382;9.752;2022-09-13T07:04:36;7.78;;;4.10;;
72559;SDS011;62987;52.382;9.752;2022-09-13T07:07:04;7.25;;;3.95;;
72559;SDS011;62987;52.382;9.752;2022-09-13T07:09:32;8.75;;;4.32;;
72559;SDS011;62987;52.382;9.752;2022-09-13T07:12:03;10.65;;;4.30;;
72559;SDS011;62987;52.382;9.752;2022-09-13T07:14:34;9.18;;;4.00;;
72559;SDS011;62987;52.382;9.752;2022-09-13T07:17:02;8.57;;;3.35;;
72559;SDS011;62987;52.382;9.752;2022-09-13T07:19:30;10.13;;;4.88;;
72559;SDS011;62987;52.382;9.752;2022-09-13T07:21:58;11.93;;;6.53;;
72559;SDS011;62987;52.382;9.752;2022-09-13T07:24:26;7.45;;;3.95;;
72559;SDS011;62987;52.382;9.752;2022-09-13T07:26:54;8.27;;;4.30;;
72559;SDS011;62987;52.382;9.752;2022-09-13T07:29:22;9.88;;;4.65;;
72559;SDS011;62987;52.382;9.752;2022-09-13T07:31:52;8.98;;;4.35;;
72559;SDS011;62987;52.382;9.752;2022-09-13T07:34:22;9.10;;;4.85;;
72559;SDS011;62987;52.382;9.752;2022-09-13T07:36:51;8.07;;;4.30;;
72559;SDS011;62987;52.382;9.752;2022-09-13T07:39:20;8.57;;;4.60;;
72559;SDS011;62987;52.382;9.752;2022-09-13T07:41:50;10.10;;;4.78;;
72559;SDS011;62987;52.382;9.752;2022-09-13T07:44:19;7.70;;;4.32;;
72559;SDS011;62987;52.382;9.752;2022-09-13T07:46:48;8.95;;;5.32;;
72559;SDS011;62987;52.382;9.752;2022-09-13T07:49:17;7.55;;;4.57;;
72559;SDS011;62987;52.382;9.752;2022-09-13T07:51:46;8.20;;;4.75;;
72559;SDS011;62987;52.382;9.752;2022-09-13T07:54:17;18.42;;;8.65;;
72559;SDS011;62987;52.382;9.752;2022-09-13T07:56:46;11.13;;;5.60;;
72559;SDS011;62987;52.382;9.752;2022-09-13T07:59:16;8.38;;;5.07;;
72559;SDS011;62987;52.382;9.752;2022-09-13T08:01:45;7.97;;;4.75;;
72559;SDS011;62987;52.382;9.752;2022-09-13T08:04:15;7.85;;;4.55;;
72559;SDS011;62987;52.382;9.752;2022-09-13T08:06:45;11.02;;;4.55;;
72559;SDS011;62987;52.382;9.752;2022-09-13T08:09:15;9.15;;;4.20;;
72559;SDS011;62987;52.382;9.752;2022-09-13T08:11:44;10.63;;;5.57;;
72559;SDS011;62987;52.382;9.752;2022-09-13T08:14:15;12.45;;;4.68;;
72559;SDS011;62987;52.382;9.752;2022-09-13T08:16:45;9.80;;;4.60;;
72559;SDS011;62987;52.382;9.752;2022-09-13T08:19:14;9.98;;;4.43;;
72559;SDS011;62987;52.382;9.752;2022-09-13T08:21:43;10.23;;;4.50;;
72559;SDS011;62987;52.382;9.752;2022-09-13T08:24:14;10.68;;;5.40;;
72559;SDS011;62987;52.382;9.752;2022-09-13T08:26:44;10.70;;;5.20;;
72559;SDS011;62987;52.382;9.752;2022-09-13T08:29:13;10.45;;;4.43;;
72559;SDS011;62987;52.382;9.752;2022-09-13T08:31:42;10.30;;;4.97;;
72559;SDS011;62987;52.382;9.752;2022-09-13T08:34:11;7.22;;;4.10;;
72559;SDS011;62987;52.382;9.752;2022-09-13T08:36:40;8.00;;;4.50;;
72559;SDS011;62987;52.382;9.752;2022-09-13T08:39:13;9.80;;;4.65;;
72559;SDS011;62987;52.382;9.752;2022-09-13T08:41:47;8.77;;;4.85;;
72559;SDS011;62987;52.382;9.752;2022-09-13T08:44:34;12.80;;;6.18;;
72559;SDS011;62987;52.382;9.752;2022-09-13T08:47:13;10.70;;;4.82;;
72559;SDS011;62987;52.382;9.752;2022-09-13T08:49:50;11.57;;;6.05;;
72559;SDS011;62987;52.382;9.752;2022-09-13T08:52:23;9.18;;;5.13;;
72559;SDS011;62987;52.382;9.752;2022-09-13T08:54:58;10.32;;;5.53;;
72559;SDS011;62987;52.382;9.752;2022-09-13T08:57:31;10.73;;;6.15;;
72559;SDS011;62987;52.382;9.752;2022-09-13T09:00:09;13.40;;;5.50;;
72559;SDS011;62987;52.382;9.752;2022-09-13T09:02:57;9.65;;;5.78;;
72559;SDS011;62987;52.382;9.752;2022-09-13T09:05:40;12.27;;;6.00;;
72559;SDS011;62987;52.382;9.752;2022-09-13T09:08:14;9.48;;;5.10;;
72559;SDS011;62987;52.382;9.752;2022-09-13T09:10:54;10.63;;;5.68;;
72559;SDS011;62987;52.382;9.752;2022-09-13T09:13:25;11.50;;;5.40;;
72559;SDS011;62987;52.382;9.752;2022-09-13T09:15:57;18.08;;;6.00;;
72559;SDS011;62987;52.382;9.752;2022-09-13T09:18:29;9.45;;;5.28;;
72559;SDS011;62987;52.382;9.752;2022-09-13T09:21:01;11.32;;;5.20;;
72559;SDS011;62987;52.382;9.752;2022-09-13T09:23:31;9.30;;;5.25;;
72559;SDS011;62987;52.382;9.752;2022-09-13T09:26:12;10.27;;;5.28;;
72559;SDS011;62987;52.382;9.752;2022-09-13T09:28:42;11.00;;;5.72;;
72559;SDS011;62987;52.382;9.752;2022-09-13T09:31:14;9.27;;;4.95;;
72559;SDS011;62987;52.382;9.752;2022-09-13T09:33:51;11.10;;;5.72;;
72559;SDS011;62987;52.382;9.752;2022-09-13T09:36:28;13.93;;;6.65;;
72559;SDS011;62987;52.382;9.752;2022-09-13T09:39:03;12.70;;;6.40;;
72559;SDS011;62987;52.382;9.752;2022-09-13T09:41:33;10.82;;;5.93;;
72559;SDS011;62987;52.382;9.752;2022-09-13T09:44:05;11.55;;;6.45;;
72559;SDS011;62987;52.382;9.752;2022-09-13T09:46:45;16.48;;;7.30;;
72559;SDS011;62987;52.382;9.752;2022-09-13T09:49:16;12.63;;;7.20;;
72559;SDS011;62987;52.382;9.752;2022-09-13T09:52:06;12.88;;;6.45;;
72559;SDS011;62987;52.382;9.752;2022-09-13T09:54:37;11.63;;;5.95;;
72559;SDS011;62987;52.382;9.752;2022-09-13T09:57:08;11.48;;;6.07;;
72559;SDS011;62987;52.382;9.752;2022-09-13T09:59:39;11.27;;;6.03;;
72559;SDS011;62987;52.382;9.752;2022-09-13T10:02:12;11.15;;;6.07;;
72559;SDS011;62987;52.382;9.752;2022-09-13T10:04:52;14.55;;;7.13;;
72559;SDS011;62987;52.382;9.752;2022-09-13T10:07:24;13.07;;;6.15;;
72559;SDS011;62987;52.382;9.752;2022-09-13T10:09:59;14.00;;;5.82;;
72559;SDS011;62987;52.382;9.752;2022-09-13T10:12:31;10.63;;;6.03;;
72559;SDS011;62987;52.382;9.752;2022-09-13T10:15:09;10.68;;;6.72;;
72559;SDS011;62987;52.382;9.752;2022-09-13T10:17:43;11.18;;;5.97;;
72559;SDS011;62987;52.382;9.752;2022-09-13T10:20:27;10.25;;;6.18;;
72559;SDS011;62987;52.382;9.752;2022-09-13T10:23:10;12.35;;;5.78;;
72559;SDS011;62987;52.382;9.752;2022-09-13T10:25:45;13.75;;;7.05;;
72559;SDS011;62987;52.382;9.752;2022-09-13T10:28:26;10.13;;;5.82;;
72559;SDS011;62987;52.382;9.752;2022-09-13T10:30:56;18.70;;;7.40;;
72559;SDS011;62987;52.382;9.752;2022-09-13T10:33:28;12.52;;;6.10;;
72559;SDS011;62987;52.382;9.752;2022-09-13T10:35:58;12.05;;;7.32;;
72559;SDS011;62987;52.382;9.752;2022-09-13T10:38:29;11.90;;;6.35;;
72559;SDS011;62987;52.382;9.752;2022-09-13T10:41:00;13.32;;;7.43;;
72559;SDS011;62987;52.382;9.752;2022-09-13T10:43:31;10.95;;;6.10;;
72559;SDS011;62987;52.382;9.752;2022-09-13T10:46:01;12.40;;;6.53;;
72559;SDS011;62987;52.382;9.752;2022-09-13T10:48:42;15.40;;;6.97;;
72559;SDS011;62987;52.382;9.752;2022-09-13T10:51:33;14.80;;;6.85;;
72559;SDS011;62987;52.382;9.752;2022-09-13T10:56:36;14.70;;;6.70;;
72559;SDS011;62987;52.382;9.752;2022-09-13T11:02:05;14.57;;;8.32;;
72559;SDS011;62987;52.382;9.752;2022-09-13T11:05:07;14.50;;;8.35;;
72559;SDS011;62987;52.382;9.752;2022-09-13T11:07:45;13.75;;;7.80;;
72559;SDS011;62987;52.382;9.752;2022-09-13T11:10:30;17.77;;;8.02;;
72559;SDS011;62987;52.382;9.752;2022-09-13T11:13:12;19.30;;;10.02;;
72559;SDS011;62987;52.382;9.752;2022-09-13T11:15:54;12.93;;;6.97;;
72559;SDS011;62987;52.382;9.752;2022-09-13T11:18:39;14.68;;;7.40;;
72559;SDS011;62987;52.382;9.752;2022-09-13T11:21:23;11.02;;;6.85;;
72559;SDS011;62987;52.382;9.752;2022-09-13T11:24:07;11.35;;;6.60;;
72559;SDS011;62987;52.382;9.752;2022-09-13T11:26:45;14.60;;;7.15;;
72559;SDS011;62987;52.382;9.752;2022-09-13T11:29:49;12.73;;;8.00;;
72559;SDS011;62987;52.382;9.752;2022-09-13T11:32:46;12.50;;;7.93;;
72559;SDS011;62987;52.382;9.752;2022-09-13T11:35:29;12.95;;;7.70;;
72559;SDS011;62987;52.382;9.752;2022-09-13T11:38:05;14.77;;;8.32;;
72559;SDS011;62987;52.382;9.752;2022-09-13T11:40:49;10.50;;;7.05;;
72559;SDS011;62987;52.382;9.752;2022-09-13T11:43:29;12.88;;;7.78;;
72559;SDS011;62987;52.382;9.752;2022-09-13T11:46:09;12.73;;;7.88;;
72559;SDS011;62987;52.382;9.752;2022-09-13T11:48:51;14.98;;;8.13;;
72559;SDS011;62987;52.382;9.752;2022-09-13T11:51:48;13.68;;;8.25;;
72559;SDS011;62987;52.382;9.752;2022-09-13T11:54:24;15.85;;;8.85;;
72559;SDS011;62987;52.382;9.752;2022-09-13T11:57:05;13.45;;;7.82;;
72559;SDS011;62987;52.382;9.752;2022-09-13T11:59:39;18.20;;;10.05;;
72559;SDS011;62987;52.382;9.752;2022-09-13T12:02:13;17.92;;;9.45;;
72559;SDS011;62987;52.382;9.752;2022-09-13T12:04:51;14.70;;;9.73;;
72559;SDS011;62987;52.382;9.752;2022-09-13T12:07:44;14.38;;;9.82;;
72559;SDS011;62987;52.382;9.752;2022-09-13T12:10:17;16.00;;;9.95;;
72559;SDS011;62987;52.382;9.752;2022-09-13T12:12:48;15.15;;;9.60;;
72559;SDS011;62987;52.382;9.752;2022-09-13T12:15:19;16.52;;;9.52;;
72559;SDS011;62987;52.382;9.752;2022-09-13T12:17:53;12.45;;;7.93;;
72559;SDS011;62987;52.382;9.752;2022-09-13T12:20:30;13.68;;;8.23;;
72559;SDS011;62987;52.382;9.752;2022-09-13T12:23:02;16.10;;;9.85;;
72559;SDS011;62987;52.382;9.752;2022-09-13T12:25:36;19.15;;;10.90;;
72559;SDS011;62987;52.382;9.752;2022-09-13T12:28:12;15.32;;;10.48;;
72559;SDS011;62987;52.382;9.752;2022-09-13T12:30:46;15.25;;;9.32;;
72559;SDS011;62987;52.382;9.752;2022-09-13T12:33:19;16.85;;;11.02;;
72559;SDS011;62987;52.382;9.752;2022-09-13T12:35:58;13.77;;;6.88;;
72559;SDS011;62987;52.382;9.752;2022-09-13T12:38:47;11.18;;;6.57;;
72559;SDS011;62987;52.382;9.752;2022-09-13T12:41:33;7.20;;;4.40;;
72559;SDS011;62987;52.382;9.752;2022-09-13T12:47:09;7.45;;;3.53;;
72559;SDS011;62987;52.382;9.752;2022-09-13T12:50:15;6.63;;;3.75;;
72559;SDS011;62987;52.382;9.752;2022-09-13T12:53:15;7.38;;;4.28;;
72559;SDS011;62987;52.382;9.752;2022-09-13T12:56:02;7.53;;;4.40;;
72559;SDS011;62987;52.382;9.752;2022-09-13T12:58:46;9.63;;;5.50;;
72559;SDS011;62987;52.382;9.752;2022-09-13T13:01:25;10.20;;;6.30;;
72559;SDS011;62987;52.382;9.752;2022-09-13T13:03:57;8.52;;;4.65;;
72559;SDS011;62987;52.382;9.752;2022-09-13T13:06:30;9.43;;;5.20;;
72559;SDS011;62987;52.382;9.752;2022-09-13T13:09:04;10.63;;;6.13;;
72559;SDS011;62987;52.382;9.752;2022-09-13T13:11:54;10.75;;;5.00;;
72559;SDS011;62987;52.382;9.752;2022-09-13T13:14:28;8.23;;;4.90;;
72559;SDS011;62987;52.382;9.752;2022-09-13T13:23:18;5.88;;;3.65;;
72559;SDS011;62987;52.382;9.752;2022-09-13T13:26:01;6.78;;;3.35;;
72559;SDS011;62987;52.382;9.752;2022-09-13T13:31:42;6.32;;;2.85;;
72559;SDS011;62987;52.382;9.752;2022-09-13T13:34:28;7.25;;;2.72;;
72559;SDS011;62987;52.382;9.752;2022-09-13T13:37:01;5.25;;;2.40;;
72559;SDS011;62987;52.382;9.752;2022-09-13T13:39:31;6.60;;;2.30;;
72559;SDS011;62987;52.382;9.752;2022-09-13T13:42:10;5.43;;;2.30;;
72559;SDS011;62987;52.382;9.752;2022-09-13T13:53:52;3.42;;;1.40;;
72559;SDS011;62987;52.382;9.752;2022-09-13T13:56:28;3.30;;;1.50;;
72559;SDS011;62987;52.382;9.752;2022-09-13T13:59:04;2.85;;;1.30;;
72559;SDS011;62987;52.382;9.752;2022-09-13T14:01:43;3.22;;;1.30;;
72559;SDS011;62987;52.382;9.752;2022-09-13T14:10:58;2.90;;;1.20;;
72559;SDS011;62987;52.382;9.752;2022-09-13T14:13:49;4.38;;;1.20;;
72559;SDS011;62987;52.382;9.752;2022-09-13T14:16:33;4.03;;;1.55;;
72559;SDS011;62987;52.382;9.752;2022-09-13T14:19:19;3.00;;;1.30;;
72559;SDS011;62987;52.382;9.752;2022-09-13T14:22:08;3.88;;;1.10;;
72559;SDS011;62987;52.382;9.752;2022-09-13T14:24:40;3.28;;;1.10;;
72559;SDS011;62987;52.382;9.752;2022-09-13T14:27:15;4.00;;;1.33;;
72559;SDS011;62987;52.382;9.752;2022-09-13T14:29:46;2.42;;;1.20;;
72559;SDS011;62987;52.382;9.752;2022-09-13T14:32:22;3.17;;;1.13;;
72559;SDS011;62987;52.382;9.752;2022-09-13T14:35:01;4.28;;;1.05;;
72559;SDS011;62987;52.382;9.752;2022-09-13T14:37:31;3.03;;;1.15;;
72559;SDS011;62987;52.382;9.752;2022-09-13T14:40:07;2.70;;;1.10;;
72559;SDS011;62987;52.382;9.752;2022-09-13T14:42:44;4.05;;;1.23;;
72559;SDS011;62987;52.382;9.752;2022-09-13T14:45:13;2.63;;;1.25;;
72559;SDS011;62987;52.382;9.752;2022-09-13T14:47:47;2.08;;;0.70;;
72559;SDS011;62987;52.382;9.752;2022-09-13T14:50:21;2.75;;;0.85;;
72559;SDS011;62987;52.382;9.752;2022-09-13T14:52:52;2.03;;;0.82;;
72559;SDS011;62987;52.382;9.752;2022-09-13T14:55:23;2.92;;;0.80;;
72559;SDS011;62987;52.382;9.752;2022-09-13T14:57:54;3.25;;;0.93;;
72559;SDS011;62987;52.382;9.752;2022-09-13T15:00:25;3.10;;;0.73;;
72559;SDS011;62987;52.382;9.752;2022-09-13T15:02:56;3.55;;;0.85;;
72559;SDS011;62987;52.382;9.752;2022-09-13T15:05:28;5.18;;;1.17;;
72559;SDS011;62987;52.382;9.752;2022-09-13T15:07:58;3.00;;;0.98;;
72559;SDS011;62987;52.382;9.752;2022-09-13T15:10:27;3.33;;;1.00;;
72559;SDS011;62987;52.382;9.752;2022-09-13T15:13:07;2.97;;;0.82;;
72559;SDS011;62987;52.382;9.752;2022-09-13T15:15:36;4.18;;;1.20;;
72559;SDS011;62987;52.382;9.752;2022-09-13T15:18:21;2.25;;;0.95;;
72559;SDS011;62987;52.382;9.752;2022-09-13T15:20:51;4.05;;;1.33;;
72559;SDS011;62987;52.382;9.752;2022-09-13T15:23:22;3.80;;;1.55;;
72559;SDS011;62987;52.382;9.752;2022-09-13T15:25:54;3.67;;;1.00;;
72559;SDS011;62987;52.382;9.752;2022-09-13T15:28:24;3.40;;;1.00;;
72559;SDS011;62987;52.382;9.752;2022-09-13T15:30:54;3.80;;;1.20;;
72559;SDS011;62987;52.382;9.752;2022-09-13T15:33:26;3.20;;;1.10;;
72559;SDS011;62987;52.382;9.752;2022-09-13T15:38:55;4.50;;;1.08;;
72559;SDS011;62987;52.382;9.752;2022-09-13T15:41:29;4.38;;;1.58;;
72559;SDS011;62987;52.382;9.752;2022-09-13T15:43:59;2.78;;;1.00;;
72559;SDS011;62987;52.382;9.752;2022-09-13T15:46:28;2.60;;;0.88;;
72559;SDS011;62987;52.382;9.752;2022-09-13T15:48:59;3.75;;;1.20;;
72559;SDS011;62987;52.382;9.752;2022-09-13T15:51:29;5.30;;;1.13;;
72559;SDS011;62987;52.382;9.752;2022-09-13T15:54:10;3.85;;;1.30;;
72559;SDS011;62987;52.382;9.752;2022-09-13T15:56:40;3.53;;;1.00;;
72559;SDS011;62987;52.382;9.752;2022-09-13T15:59:10;4.55;;;1.50;;
72559;SDS011;62987;52.382;9.752;2022-09-13T16:01:41;3.45;;;1.10;;
72559;SDS011;62987;52.382;9.752;2022-09-13T16:04:11;3.53;;;1.30;;